sensor_id;sensor_type;location;lat;lon;timestamp;temperature;humidity
827;DHT22;395;48.132;11.608;2023-04-03T00:01:07;6.60;1.00
827;DHT22;395;48.132;11.608;2023-04-03T00:03:33;6.70;1.00
827;DHT22;395;48.132;11.608;2023-04-03T00:05:58;6.70;1.00
827;DHT22;395;48.132;11.608;2023-04-03T00:08:24;6.70;1.00
827;DHT22;395;48.132;11.608;2023-04-03T00:10:50;6.70;1.00
827;DHT22;395;48.132;11.608;2023-04-03T00:13:16;6.90;1.00
827;DHT22;395;48.132;11.608;2023-04-03T00:15:42;6.70;1.00
827;DHT22;395;48.132;11.608;2023-04-03T00:18:08;6.70;1.00
827;DHT22;395;48.132;11.608;2023-04-03T00:20:34;6.70;1.00
827;DHT22;395;48.132;11.608;2023-04-03T00:23:00;6.80;1.00
827;DHT22;395;48.132;11.608;2023-04-03T00:25:26;6.70;1.50
827;DHT22;395;48.132;11.608;2023-04-03T00:27:52;6.80;1.30
827;DHT22;395;48.132;11.608;2023-04-03T00:30:20;6.80;1.00
827;DHT22;395;48.132;11.608;2023-04-03T00:32:48;6.80;1.40
827;DHT22;395;48.132;11.608;2023-04-03T00:35:14;6.70;1.00
827;DHT22;395;48.132;11.608;2023-04-03T00:37:42;6.70;1.00
827;DHT22;395;48.132;11.608;2023-04-03T00:40:09;6.70;1.00
827;DHT22;395;48.132;11.608;2023-04-03T00:42:36;6.70;1.00
827;DHT22;395;48.132;11.608;2023-04-03T00:47:29;6.80;1.00
827;DHT22;395;48.132;11.608;2023-04-03T00:49:56;6.80;1.00
827;DHT22;395;48.132;11.608;2023-04-03T00:52:25;6.70;1.00
827;DHT22;395;48.132;11.608;2023-04-03T00:55:00;6.80;1.00
827;DHT22;395;48.132;11.608;2023-04-03T00:57:28;6.80;1.00
827;DHT22;395;48.132;11.608;2023-04-03T00:59:57;6.90;1.00
827;DHT22;395;48.132;11.608;2023-04-03T01:02:25;6.80;1.00
827;DHT22;395;48.132;11.608;2023-04-03T01:04:51;6.90;1.00
827;DHT22;395;48.132;11.608;2023-04-03T01:07:22;6.90;1.00
827;DHT22;395;48.132;11.608;2023-04-03T01:09:51;6.90;1.00
827;DHT22;395;48.132;11.608;2023-04-03T01:12:20;6.80;1.00
827;DHT22;395;48.132;11.608;2023-04-03T01:14:49;6.80;1.00
827;DHT22;395;48.132;11.608;2023-04-03T01:17:40;6.80;1.00
827;DHT22;395;48.132;11.608;2023-04-03T01:25:35;6.60;1.00
827;DHT22;395;48.132;11.608;2023-04-03T01:28:02;6.60;1.00
827;DHT22;395;48.132;11.608;2023-04-03T01:30:33;6.70;1.00
827;DHT22;395;48.132;11.608;2023-04-03T01:32:59;6.60;1.00
827;DHT22;395;48.132;11.608;2023-04-03T01:35:25;6.60;1.00
827;DHT22;395;48.132;11.608;2023-04-03T01:37:51;6.60;1.00
827;DHT22;395;48.132;11.608;2023-04-03T01:40:17;6.60;1.00
827;DHT22;395;48.132;11.608;2023-04-03T01:42:43;6.60;1.00
827;DHT22;395;48.132;11.608;2023-04-03T01:45:09;6.60;1.00
827;DHT22;395;48.132;11.608;2023-04-03T01:47:35;6.70;1.40
827;DHT22;395;48.132;11.608;2023-04-03T01:50:00;6.70;1.10
827;DHT22;395;48.132;11.608;2023-04-03T01:52:26;6.70;1.00
827;DHT22;395;48.132;11.608;2023-04-03T01:54:52;6.70;1.00
827;DHT22;395;48.132;11.608;2023-04-03T01:57:17;6.60;1.00
827;DHT22;395;48.132;11.608;2023-04-03T01:59:43;6.70;1.10
827;DHT22;395;48.132;11.608;2023-04-03T02:02:09;6.70;1.00
827;DHT22;395;48.132;11.608;2023-04-03T02:04:34;6.70;1.00
827;DHT22;395;48.132;11.608;2023-04-03T02:07:00;6.70;1.00
827;DHT22;395;48.132;11.608;2023-04-03T02:09:26;6.70;1.00
827;DHT22;395;48.132;11.608;2023-04-03T02:11:52;6.70;1.00
827;DHT22;395;48.132;11.608;2023-04-03T02:14:18;6.70;1.00
827;DHT22;395;48.132;11.608;2023-04-03T02:16:44;6.70;1.00
827;DHT22;395;48.132;11.608;2023-04-03T02:19:09;6.70;1.00
827;DHT22;395;48.132;11.608;2023-04-03T02:21:35;6.70;1.00
827;DHT22;395;48.132;11.608;2023-04-03T02:24:01;6.80;1.00
827;DHT22;395;48.132;11.608;2023-04-03T02:26:26;6.80;1.00
827;DHT22;395;48.132;11.608;2023-04-03T02:28:52;6.80;1.00
827;DHT22;395;48.132;11.608;2023-04-03T02:31:18;6.80;1.00
827;DHT22;395;48.132;11.608;2023-04-03T02:33:44;6.80;1.00
827;DHT22;395;48.132;11.608;2023-04-03T02:36:09;6.80;1.00
827;DHT22;395;48.132;11.608;2023-04-03T02:38:35;6.80;1.00
827;DHT22;395;48.132;11.608;2023-04-03T02:41:04;6.80;1.00
827;DHT22;395;48.132;11.608;2023-04-03T02:43:29;6.80;1.00
827;DHT22;395;48.132;11.608;2023-04-03T02:45:55;6.80;1.00
827;DHT22;395;48.132;11.608;2023-04-03T02:48:21;6.80;1.00
827;DHT22;395;48.132;11.608;2023-04-03T02:50:47;6.80;1.00
827;DHT22;395;48.132;11.608;2023-04-03T02:53:12;6.80;1.00
827;DHT22;395;48.132;11.608;2023-04-03T02:55:38;6.80;1.00
827;DHT22;395;48.132;11.608;2023-04-03T02:58:03;6.80;1.00
827;DHT22;395;48.132;11.608;2023-04-03T03:00:29;6.80;1.00
827;DHT22;395;48.132;11.608;2023-04-03T03:02:55;6.80;1.00
827;DHT22;395;48.132;11.608;2023-04-03T03:05:21;6.80;1.00
827;DHT22;395;48.132;11.608;2023-04-03T03:07:47;6.80;1.00
827;DHT22;395;48.132;11.608;2023-04-03T03:10:13;6.70;1.00
827;DHT22;395;48.132;11.608;2023-04-03T03:12:38;6.80;1.00
827;DHT22;395;48.132;11.608;2023-04-03T03:15:06;6.80;1.00
827;DHT22;395;48.132;11.608;2023-04-03T03:17:32;6.80;1.00
827;DHT22;395;48.132;11.608;2023-04-03T03:19:58;6.80;1.00
827;DHT22;395;48.132;11.608;2023-04-03T03:22:23;6.80;1.00
827;DHT22;395;48.132;11.608;2023-04-03T03:24:49;6.80;1.00
827;DHT22;395;48.132;11.608;2023-04-03T03:27:15;6.80;1.00
827;DHT22;395;48.132;11.608;2023-04-03T03:29:42;6.80;1.00
827;DHT22;395;48.132;11.608;2023-04-03T03:32:07;6.80;1.00
827;DHT22;395;48.132;11.608;2023-04-03T03:34:33;6.80;1.00
827;DHT22;395;48.132;11.608;2023-04-03T03:36:59;6.80;1.00
827;DHT22;395;48.132;11.608;2023-04-03T03:39:25;6.80;1.00
827;DHT22;395;48.132;11.608;2023-04-03T03:41:50;6.70;1.00
827;DHT22;395;48.132;11.608;2023-04-03T03:44:18;6.80;1.00
827;DHT22;395;48.132;11.608;2023-04-03T03:46:44;6.70;1.00
827;DHT22;395;48.132;11.608;2023-04-03T03:49:10;6.80;1.00
827;DHT22;395;48.132;11.608;2023-04-03T03:51:37;6.80;1.00
827;DHT22;395;48.132;11.608;2023-04-03T03:54:03;6.70;1.00
827;DHT22;395;48.132;11.608;2023-04-03T03:56:29;6.80;1.00
827;DHT22;395;48.132;11.608;2023-04-03T03:58:55;6.80;1.00
827;DHT22;395;48.132;11.608;2023-04-03T04:01:25;6.80;1.00
827;DHT22;395;48.132;11.608;2023-04-03T04:03:50;6.80;1.00
827;DHT22;395;48.132;11.608;2023-04-03T04:06:16;6.80;1.00
827;DHT22;395;48.132;11.608;2023-04-03T04:08:42;6.80;1.00
827;DHT22;395;48.132;11.608;2023-04-03T04:11:08;6.70;1.00
827;DHT22;395;48.132;11.608;2023-04-03T04:13:34;6.70;1.00
827;DHT22;395;48.132;11.608;2023-04-03T04:15:59;6.70;1.00
827;DHT22;395;48.132;11.608;2023-04-03T04:18:25;6.60;1.00
827;DHT22;395;48.132;11.608;2023-04-03T04:20:51;6.70;1.00
827;DHT22;395;48.132;11.608;2023-04-03T04:23:17;6.70;1.00
827;DHT22;395;48.132;11.608;2023-04-03T04:25:48;6.60;1.00
827;DHT22;395;48.132;11.608;2023-04-03T04:28:14;6.70;1.00
827;DHT22;395;48.132;11.608;2023-04-03T04:30:40;6.70;1.00
827;DHT22;395;48.132;11.608;2023-04-03T04:33:06;6.70;1.00
827;DHT22;395;48.132;11.608;2023-04-03T04:35:32;6.70;1.00
827;DHT22;395;48.132;11.608;2023-04-03T04:37:58;6.70;1.00
827;DHT22;395;48.132;11.608;2023-04-03T04:40:25;6.70;1.00
827;DHT22;395;48.132;11.608;2023-04-03T04:42:51;6.60;1.00
827;DHT22;395;48.132;11.608;2023-04-03T04:45:17;6.80;1.00
827;DHT22;395;48.132;11.608;2023-04-03T04:47:43;6.70;1.00
827;DHT22;395;48.132;11.608;2023-04-03T04:50:09;6.80;1.00
827;DHT22;395;48.132;11.608;2023-04-03T04:52:35;6.60;1.00
827;DHT22;395;48.132;11.608;2023-04-03T04:55:01;6.60;1.00
827;DHT22;395;48.132;11.608;2023-04-03T04:57:27;6.60;1.00
827;DHT22;395;48.132;11.608;2023-04-03T04:59:52;6.60;1.00
827;DHT22;395;48.132;11.608;2023-04-03T05:02:18;6.70;1.00
827;DHT22;395;48.132;11.608;2023-04-03T05:04:44;6.70;1.00
827;DHT22;395;48.132;11.608;2023-04-03T05:07:10;6.70;1.00
827;DHT22;395;48.132;11.608;2023-04-03T05:09:35;6.70;1.00
827;DHT22;395;48.132;11.608;2023-04-03T05:12:02;6.70;1.00
827;DHT22;395;48.132;11.608;2023-04-03T05:14:28;6.60;1.00
827;DHT22;395;48.132;11.608;2023-04-03T05:16:55;6.60;1.00
827;DHT22;395;48.132;11.608;2023-04-03T05:19:21;6.60;1.00
827;DHT22;395;48.132;11.608;2023-04-03T05:21:47;6.60;1.00
827;DHT22;395;48.132;11.608;2023-04-03T05:24:14;6.60;1.00
827;DHT22;395;48.132;11.608;2023-04-03T05:26:40;6.70;1.00
827;DHT22;395;48.132;11.608;2023-04-03T05:29:06;6.60;1.00
827;DHT22;395;48.132;11.608;2023-04-03T05:31:31;6.60;1.00
827;DHT22;395;48.132;11.608;2023-04-03T05:33:58;6.60;1.00
827;DHT22;395;48.132;11.608;2023-04-03T05:36:23;6.60;1.00
827;DHT22;395;48.132;11.608;2023-04-03T05:38:49;6.60;1.00
827;DHT22;395;48.132;11.608;2023-04-03T05:41:15;6.60;1.00
827;DHT22;395;48.132;11.608;2023-04-03T05:43:41;6.60;1.00
827;DHT22;395;48.132;11.608;2023-04-03T05:46:13;6.60;1.00
827;DHT22;395;48.132;11.608;2023-04-03T05:48:39;6.60;1.00
827;DHT22;395;48.132;11.608;2023-04-03T05:51:06;6.60;1.00
827;DHT22;395;48.132;11.608;2023-04-03T05:53:35;6.60;1.00
827;DHT22;395;48.132;11.608;2023-04-03T05:56:03;6.60;1.00
827;DHT22;395;48.132;11.608;2023-04-03T05:58:28;6.60;1.00
827;DHT22;395;48.132;11.608;2023-04-03T06:00:54;6.60;1.00
827;DHT22;395;48.132;11.608;2023-04-03T06:03:20;6.70;1.00
827;DHT22;395;48.132;11.608;2023-04-03T06:05:46;6.70;1.00
827;DHT22;395;48.132;11.608;2023-04-03T06:08:11;6.70;1.00
827;DHT22;395;48.132;11.608;2023-04-03T06:10:38;6.70;1.00
827;DHT22;395;48.132;11.608;2023-04-03T06:13:04;6.70;1.00
827;DHT22;395;48.132;11.608;2023-04-03T06:15:30;6.80;1.00
827;DHT22;395;48.132;11.608;2023-04-03T06:17:55;6.80;1.00
827;DHT22;395;48.132;11.608;2023-04-03T06:20:21;6.90;1.00
827;DHT22;395;48.132;11.608;2023-04-03T06:22:47;6.80;1.00
827;DHT22;395;48.132;11.608;2023-04-03T06:25:13;6.80;1.00
827;DHT22;395;48.132;11.608;2023-04-03T06:27:40;6.80;1.00
827;DHT22;395;48.132;11.608;2023-04-03T06:30:06;6.90;1.00
827;DHT22;395;48.132;11.608;2023-04-03T06:32:32;6.80;1.00
827;DHT22;395;48.132;11.608;2023-04-03T06:34:58;6.80;1.00
827;DHT22;395;48.132;11.608;2023-04-03T06:37:24;6.90;1.00
827;DHT22;395;48.132;11.608;2023-04-03T06:39:52;6.80;1.00
827;DHT22;395;48.132;11.608;2023-04-03T06:42:17;6.80;1.00
827;DHT22;395;48.132;11.608;2023-04-03T06:44:43;6.80;1.00
827;DHT22;395;48.132;11.608;2023-04-03T06:47:13;6.80;1.00
827;DHT22;395;48.132;11.608;2023-04-03T06:49:39;6.80;1.00
827;DHT22;395;48.132;11.608;2023-04-03T06:52:05;6.80;1.00
827;DHT22;395;48.132;11.608;2023-04-03T06:54:31;6.90;1.00
827;DHT22;395;48.132;11.608;2023-04-03T06:56:57;6.80;1.00
827;DHT22;395;48.132;11.608;2023-04-03T06:59:24;6.90;1.00
827;DHT22;395;48.132;11.608;2023-04-03T07:01:51;6.90;1.00
827;DHT22;395;48.132;11.608;2023-04-03T07:04:17;6.90;1.00
827;DHT22;395;48.132;11.608;2023-04-03T07:06:43;6.90;1.00
827;DHT22;395;48.132;11.608;2023-04-03T07:09:09;7.00;1.00
827;DHT22;395;48.132;11.608;2023-04-03T07:11:36;7.00;1.00
827;DHT22;395;48.132;11.608;2023-04-03T07:14:02;7.00;1.00
827;DHT22;395;48.132;11.608;2023-04-03T07:16:28;7.10;1.00
827;DHT22;395;48.132;11.608;2023-04-03T07:18:56;7.00;1.00
827;DHT22;395;48.132;11.608;2023-04-03T07:21:21;7.10;1.00
827;DHT22;395;48.132;11.608;2023-04-03T07:23:47;7.10;1.00
827;DHT22;395;48.132;11.608;2023-04-03T07:26:13;7.10;1.00
827;DHT22;395;48.132;11.608;2023-04-03T07:28:39;7.20;1.00
827;DHT22;395;48.132;11.608;2023-04-03T07:31:08;7.20;1.00
827;DHT22;395;48.132;11.608;2023-04-03T07:33:36;7.30;1.00
827;DHT22;395;48.132;11.608;2023-04-03T07:36:04;7.40;1.00
827;DHT22;395;48.132;11.608;2023-04-03T07:38:32;7.30;1.00
827;DHT22;395;48.132;11.608;2023-04-03T07:40:58;7.30;1.00
827;DHT22;395;48.132;11.608;2023-04-03T07:43:23;7.30;1.00
827;DHT22;395;48.132;11.608;2023-04-03T07:45:50;7.40;1.00
827;DHT22;395;48.132;11.608;2023-04-03T07:48:18;7.30;1.00
827;DHT22;395;48.132;11.608;2023-04-03T07:50:43;7.20;1.00
827;DHT22;395;48.132;11.608;2023-04-03T07:53:09;7.20;1.00
827;DHT22;395;48.132;11.608;2023-04-03T07:55:35;7.20;1.00
827;DHT22;395;48.132;11.608;2023-04-03T07:58:11;7.20;1.00
827;DHT22;395;48.132;11.608;2023-04-03T08:00:37;7.30;1.00
827;DHT22;395;48.132;11.608;2023-04-03T08:03:04;7.20;1.00
827;DHT22;395;48.132;11.608;2023-04-03T08:05:30;7.20;1.00
827;DHT22;395;48.132;11.608;2023-04-03T08:07:56;7.20;1.00
827;DHT22;395;48.132;11.608;2023-04-03T08:10:22;7.30;1.00
827;DHT22;395;48.132;11.608;2023-04-03T08:12:48;7.40;1.00
827;DHT22;395;48.132;11.608;2023-04-03T08:15:14;7.40;1.00
827;DHT22;395;48.132;11.608;2023-04-03T08:17:39;7.50;1.00
827;DHT22;395;48.132;11.608;2023-04-03T08:20:06;7.40;1.00
827;DHT22;395;48.132;11.608;2023-04-03T08:22:33;7.40;1.00
827;DHT22;395;48.132;11.608;2023-04-03T08:24:59;7.50;1.00
827;DHT22;395;48.132;11.608;2023-04-03T08:27:26;7.50;1.00
827;DHT22;395;48.132;11.608;2023-04-03T08:29:52;7.50;1.00
827;DHT22;395;48.132;11.608;2023-04-03T08:32:18;7.50;1.00
827;DHT22;395;48.132;11.608;2023-04-03T08:34:44;7.50;1.00
827;DHT22;395;48.132;11.608;2023-04-03T08:37:10;7.50;1.00
827;DHT22;395;48.132;11.608;2023-04-03T08:39:36;7.60;1.00
827;DHT22;395;48.132;11.608;2023-04-03T08:42:07;7.60;1.00
827;DHT22;395;48.132;11.608;2023-04-03T08:45:01;7.70;1.00
827;DHT22;395;48.132;11.608;2023-04-03T08:50:20;7.80;1.00
827;DHT22;395;48.132;11.608;2023-04-03T08:52:59;7.80;1.00
827;DHT22;395;48.132;11.608;2023-04-03T08:58:01;7.90;1.00
827;DHT22;395;48.132;11.608;2023-04-03T09:00:34;7.90;1.00
827;DHT22;395;48.132;11.608;2023-04-03T09:03:03;7.90;1.00
827;DHT22;395;48.132;11.608;2023-04-03T09:07:58;7.90;1.00
827;DHT22;395;48.132;11.608;2023-04-03T09:10:32;7.80;1.00
827;DHT22;395;48.132;11.608;2023-04-03T09:13:04;7.80;1.00
827;DHT22;395;48.132;11.608;2023-04-03T09:15:30;7.80;1.00
827;DHT22;395;48.132;11.608;2023-04-03T09:18:12;7.90;1.00
827;DHT22;395;48.132;11.608;2023-04-03T09:23:37;7.90;1.00
827;DHT22;395;48.132;11.608;2023-04-03T09:26:59;8.00;1.00
827;DHT22;395;48.132;11.608;2023-04-03T09:29:08;8.00;1.00
827;DHT22;395;48.132;11.608;2023-04-03T09:31:39;8.10;1.00
827;DHT22;395;48.132;11.608;2023-04-03T09:34:25;8.10;1.00
827;DHT22;395;48.132;11.608;2023-04-03T09:36:54;8.10;1.00
827;DHT22;395;48.132;11.608;2023-04-03T09:39:23;8.10;1.00
827;DHT22;395;48.132;11.608;2023-04-03T09:41:59;8.20;1.00
827;DHT22;395;48.132;11.608;2023-04-03T09:44:32;8.10;1.00
827;DHT22;395;48.132;11.608;2023-04-03T09:46:59;8.10;1.00
827;DHT22;395;48.132;11.608;2023-04-03T09:49:25;8.20;1.00
827;DHT22;395;48.132;11.608;2023-04-03T09:51:51;8.10;1.00
827;DHT22;395;48.132;11.608;2023-04-03T09:54:37;8.10;1.00
827;DHT22;395;48.132;11.608;2023-04-03T09:57:11;8.10;1.00
827;DHT22;395;48.132;11.608;2023-04-03T09:59:47;8.10;1.00
827;DHT22;395;48.132;11.608;2023-04-03T10:02:28;8.20;1.00
827;DHT22;395;48.132;11.608;2023-04-03T10:04:56;8.20;1.00
827;DHT22;395;48.132;11.608;2023-04-03T10:07:34;8.10;1.00
827;DHT22;395;48.132;11.608;2023-04-03T10:10:19;8.20;1.00
827;DHT22;395;48.132;11.608;2023-04-03T10:12:45;8.30;1.00
827;DHT22;395;48.132;11.608;2023-04-03T10:15:16;8.20;1.00
827;DHT22;395;48.132;11.608;2023-04-03T10:17:57;8.20;1.00
827;DHT22;395;48.132;11.608;2023-04-03T10:20:48;8.10;1.00
827;DHT22;395;48.132;11.608;2023-04-03T10:23:26;8.00;1.00
827;DHT22;395;48.132;11.608;2023-04-03T10:42:49;7.90;1.00
827;DHT22;395;48.132;11.608;2023-04-03T10:45:20;7.90;1.00
827;DHT22;395;48.132;11.608;2023-04-03T10:50:38;7.70;1.00
827;DHT22;395;48.132;11.608;2023-04-03T10:53:48;7.70;1.00
827;DHT22;395;48.132;11.608;2023-04-03T10:56:11;7.50;1.00
827;DHT22;395;48.132;11.608;2023-04-03T10:58:57;7.40;1.00
827;DHT22;395;48.132;11.608;2023-04-03T11:01:30;7.40;1.00
827;DHT22;395;48.132;11.608;2023-04-03T11:04:00;7.40;1.00
827;DHT22;395;48.132;11.608;2023-04-03T11:09:33;7.40;1.00
827;DHT22;395;48.132;11.608;2023-04-03T11:12:18;7.50;1.00
827;DHT22;395;48.132;11.608;2023-04-03T11:14:47;7.50;1.00
827;DHT22;395;48.132;11.608;2023-04-03T11:22:23;7.50;1.00
827;DHT22;395;48.132;11.608;2023-04-03T11:27:44;7.60;1.00
827;DHT22;395;48.132;11.608;2023-04-03T11:30:19;7.60;1.00
827;DHT22;395;48.132;11.608;2023-04-03T11:35:33;7.80;1.00
827;DHT22;395;48.132;11.608;2023-04-03T11:38:01;7.80;1.00
827;DHT22;395;48.132;11.608;2023-04-03T11:40:32;7.70;1.00
827;DHT22;395;48.132;11.608;2023-04-03T11:48:04;7.80;1.00
827;DHT22;395;48.132;11.608;2023-04-03T12:00:46;7.80;1.00
827;DHT22;395;48.132;11.608;2023-04-03T12:14:01;7.80;1.00
827;DHT22;395;48.132;11.608;2023-04-03T12:19:04;7.90;1.00
827;DHT22;395;48.132;11.608;2023-04-03T12:32:10;8.30;1.00
827;DHT22;395;48.132;11.608;2023-04-03T12:39:51;8.40;1.00
827;DHT22;395;48.132;11.608;2023-04-03T12:47:45;8.50;1.00
827;DHT22;395;48.132;11.608;2023-04-03T12:50:30;8.60;1.00
827;DHT22;395;48.132;11.608;2023-04-03T12:55:37;8.60;1.00
827;DHT22;395;48.132;11.608;2023-04-03T12:58:25;8.50;1.00
827;DHT22;395;48.132;11.608;2023-04-03T13:01:10;8.50;1.00
827;DHT22;395;48.132;11.608;2023-04-03T13:03:39;8.60;1.00
827;DHT22;395;48.132;11.608;2023-04-03T13:06:05;8.70;1.00
827;DHT22;395;48.132;11.608;2023-04-03T13:08:31;8.70;1.00
827;DHT22;395;48.132;11.608;2023-04-03T13:11:10;8.80;1.00
827;DHT22;395;48.132;11.608;2023-04-03T13:13:37;8.80;1.00
827;DHT22;395;48.132;11.608;2023-04-03T13:16:11;8.80;1.00
827;DHT22;395;48.132;11.608;2023-04-03T13:18:39;8.70;1.00
827;DHT22;395;48.132;11.608;2023-04-03T13:21:07;8.60;1.00
827;DHT22;395;48.132;11.608;2023-04-03T13:23:39;8.60;1.00
827;DHT22;395;48.132;11.608;2023-04-03T13:26:06;8.50;1.00
827;DHT22;395;48.132;11.608;2023-04-03T13:28:33;8.50;1.00
827;DHT22;395;48.132;11.608;2023-04-03T13:31:47;8.60;1.00
827;DHT22;395;48.132;11.608;2023-04-03T13:34:12;8.70;1.00
827;DHT22;395;48.132;11.608;2023-04-03T13:36:40;8.70;1.00
827;DHT22;395;48.132;11.608;2023-04-03T13:41:41;8.80;1.00
827;DHT22;395;48.132;11.608;2023-04-03T13:46:47;8.80;1.00
827;DHT22;395;48.132;11.608;2023-04-03T13:49:42;8.60;1.00
827;DHT22;395;48.132;11.608;2023-04-03T13:52:22;8.40;1.00
827;DHT22;395;48.132;11.608;2023-04-03T13:54:53;8.40;1.00
827;DHT22;395;48.132;11.608;2023-04-03T13:57:19;8.30;1.00
827;DHT22;395;48.132;11.608;2023-04-03T13:59:46;8.00;1.00
827;DHT22;395;48.132;11.608;2023-04-03T14:02:28;8.10;1.00
827;DHT22;395;48.132;11.608;2023-04-03T14:04:58;7.80;1.00
827;DHT22;395;48.132;11.608;2023-04-03T14:07:28;8.00;1.00
827;DHT22;395;48.132;11.608;2023-04-03T14:09:55;8.10;1.00
827;DHT22;395;48.132;11.608;2023-04-03T14:12:34;8.20;1.00
827;DHT22;395;48.132;11.608;2023-04-03T14:15:10;8.20;1.00
827;DHT22;395;48.132;11.608;2023-04-03T14:17:37;8.40;1.00
827;DHT22;395;48.132;11.608;2023-04-03T14:20:03;8.50;1.00
827;DHT22;395;48.132;11.608;2023-04-03T14:22:32;8.60;1.00
827;DHT22;395;48.132;11.608;2023-04-03T14:25:00;8.70;1.00
827;DHT22;395;48.132;11.608;2023-04-03T14:27:29;8.60;1.00
827;DHT22;395;48.132;11.608;2023-04-03T14:29:56;8.50;1.00
827;DHT22;395;48.132;11.608;2023-04-03T14:32:24;8.50;1.00
827;DHT22;395;48.132;11.608;2023-04-03T14:34:51;8.60;1.00
827;DHT22;395;48.132;11.608;2023-04-03T14:37:20;8.50;1.00
827;DHT22;395;48.132;11.608;2023-04-03T14:39:48;8.30;1.00
827;DHT22;395;48.132;11.608;2023-04-03T14:42:21;8.50;1.00
827;DHT22;395;48.132;11.608;2023-04-03T14:44:47;8.60;1.00
827;DHT22;395;48.132;11.608;2023-04-03T14:47:15;8.70;1.00
827;DHT22;395;48.132;11.608;2023-04-03T14:49:42;8.70;1.00
827;DHT22;395;48.132;11.608;2023-04-03T14:52:23;8.80;1.00
827;DHT22;395;48.132;11.608;2023-04-03T14:54:50;8.80;1.00
827;DHT22;395;48.132;11.608;2023-04-03T14:57:16;8.80;1.00
827;DHT22;395;48.132;11.608;2023-04-03T14:59:43;8.90;1.00
827;DHT22;395;48.132;11.608;2023-04-03T15:02:29;9.00;1.00
827;DHT22;395;48.132;11.608;2023-04-03T15:04:56;9.00;1.00
827;DHT22;395;48.132;11.608;2023-04-03T15:07:23;9.00;1.00
827;DHT22;395;48.132;11.608;2023-04-03T15:09:49;8.90;1.00
827;DHT22;395;48.132;11.608;2023-04-03T15:12:16;8.80;1.00
827;DHT22;395;48.132;11.608;2023-04-03T15:14:41;8.60;1.00
827;DHT22;395;48.132;11.608;2023-04-03T15:17:17;8.30;1.00
827;DHT22;395;48.132;11.608;2023-04-03T15:19:45;8.30;1.00
827;DHT22;395;48.132;11.608;2023-04-03T15:22:20;8.30;1.00
827;DHT22;395;48.132;11.608;2023-04-03T15:24:45;8.20;1.00
827;DHT22;395;48.132;11.608;2023-04-03T15:27:12;8.30;1.00
827;DHT22;395;48.132;11.608;2023-04-03T15:29:39;8.30;1.00
827;DHT22;395;48.132;11.608;2023-04-03T15:32:06;8.30;1.00
827;DHT22;395;48.132;11.608;2023-04-03T15:34:32;8.30;1.00
827;DHT22;395;48.132;11.608;2023-04-03T15:36:58;8.30;1.00
827;DHT22;395;48.132;11.608;2023-04-03T15:39:24;8.40;1.00
827;DHT22;395;48.132;11.608;2023-04-03T15:41:50;8.40;1.00
827;DHT22;395;48.132;11.608;2023-04-03T15:44:17;8.40;1.00
827;DHT22;395;48.132;11.608;2023-04-03T15:46:44;8.30;1.00
827;DHT22;395;48.132;11.608;2023-04-03T15:49:11;8.20;1.00
827;DHT22;395;48.132;11.608;2023-04-03T15:51:37;8.30;1.00
827;DHT22;395;48.132;11.608;2023-04-03T15:54:03;8.30;1.00
827;DHT22;395;48.132;11.608;2023-04-03T15:56:29;8.20;1.00
827;DHT22;395;48.132;11.608;2023-04-03T15:58:55;8.30;1.00
827;DHT22;395;48.132;11.608;2023-04-03T16:01:20;8.40;1.00
827;DHT22;395;48.132;11.608;2023-04-03T16:03:46;8.40;1.00
827;DHT22;395;48.132;11.608;2023-04-03T16:06:14;8.40;1.00
827;DHT22;395;48.132;11.608;2023-04-03T16:08:40;8.50;1.00
827;DHT22;395;48.132;11.608;2023-04-03T16:11:06;8.40;1.00
827;DHT22;395;48.132;11.608;2023-04-03T16:13:32;8.30;1.00
827;DHT22;395;48.132;11.608;2023-04-03T16:15:59;8.40;1.00
827;DHT22;395;48.132;11.608;2023-04-03T16:18:25;8.20;1.00
827;DHT22;395;48.132;11.608;2023-04-03T16:20:51;8.10;1.00
827;DHT22;395;48.132;11.608;2023-04-03T16:23:18;8.00;1.00
827;DHT22;395;48.132;11.608;2023-04-03T16:25:44;8.10;1.00
827;DHT22;395;48.132;11.608;2023-04-03T16:28:17;8.10;1.00
827;DHT22;395;48.132;11.608;2023-04-03T16:30:46;8.10;1.00
827;DHT22;395;48.132;11.608;2023-04-03T16:33:13;8.00;1.00
827;DHT22;395;48.132;11.608;2023-04-03T16:35:39;8.00;1.00
827;DHT22;395;48.132;11.608;2023-04-03T16:38:05;8.00;1.00
827;DHT22;395;48.132;11.608;2023-04-03T16:40:31;8.10;1.00
827;DHT22;395;48.132;11.608;2023-04-03T16:42:59;8.10;1.00
827;DHT22;395;48.132;11.608;2023-04-03T16:45:25;8.00;1.00
827;DHT22;395;48.132;11.608;2023-04-03T16:47:50;8.00;1.00
827;DHT22;395;48.132;11.608;2023-04-03T16:50:16;8.00;1.00
827;DHT22;395;48.132;11.608;2023-04-03T16:52:42;8.00;1.00
827;DHT22;395;48.132;11.608;2023-04-03T16:55:08;8.10;1.00
827;DHT22;395;48.132;11.608;2023-04-03T16:57:33;8.10;1.00
827;DHT22;395;48.132;11.608;2023-04-03T16:59:59;8.10;1.00
827;DHT22;395;48.132;11.608;2023-04-03T17:02:25;8.10;1.00
827;DHT22;395;48.132;11.608;2023-04-03T17:04:52;8.00;1.00
827;DHT22;395;48.132;11.608;2023-04-03T17:07:19;7.90;1.00
827;DHT22;395;48.132;11.608;2023-04-03T17:09:45;7.90;1.00
827;DHT22;395;48.132;11.608;2023-04-03T17:12:11;7.80;1.00
827;DHT22;395;48.132;11.608;2023-04-03T17:14:37;7.90;1.00
827;DHT22;395;48.132;11.608;2023-04-03T17:17:03;7.90;1.00
827;DHT22;395;48.132;11.608;2023-04-03T17:19:29;7.80;1.00
827;DHT22;395;48.132;11.608;2023-04-03T17:21:56;7.80;1.00
827;DHT22;395;48.132;11.608;2023-04-03T17:24:22;7.70;1.00
827;DHT22;395;48.132;11.608;2023-04-03T17:26:48;7.70;1.00
827;DHT22;395;48.132;11.608;2023-04-03T17:29:13;7.80;1.00
827;DHT22;395;48.132;11.608;2023-04-03T17:31:39;7.70;1.00
827;DHT22;395;48.132;11.608;2023-04-03T17:34:05;7.70;1.00
827;DHT22;395;48.132;11.608;2023-04-03T17:36:32;7.80;1.00
827;DHT22;395;48.132;11.608;2023-04-03T17:38:58;7.80;1.00
827;DHT22;395;48.132;11.608;2023-04-03T17:41:24;7.80;1.00
827;DHT22;395;48.132;11.608;2023-04-03T17:43:50;7.80;1.00
827;DHT22;395;48.132;11.608;2023-04-03T17:46:16;7.80;1.00
827;DHT22;395;48.132;11.608;2023-04-03T17:48:43;7.80;1.00
827;DHT22;395;48.132;11.608;2023-04-03T17:51:11;7.80;1.00
827;DHT22;395;48.132;11.608;2023-04-03T17:53:37;7.80;1.00
827;DHT22;395;48.132;11.608;2023-04-03T17:56:28;7.80;1.00
827;DHT22;395;48.132;11.608;2023-04-03T17:58:54;7.70;1.00
827;DHT22;395;48.132;11.608;2023-04-03T18:01:26;7.70;1.00
827;DHT22;395;48.132;11.608;2023-04-03T18:03:54;7.60;1.00
827;DHT22;395;48.132;11.608;2023-04-03T18:06:23;7.60;1.00
827;DHT22;395;48.132;11.608;2023-04-03T18:08:54;7.90;1.00
827;DHT22;395;48.132;11.608;2023-04-03T18:11:26;7.60;1.00
827;DHT22;395;48.132;11.608;2023-04-03T18:13:53;7.50;1.00
827;DHT22;395;48.132;11.608;2023-04-03T18:16:19;7.50;1.00
827;DHT22;395;48.132;11.608;2023-04-03T18:18:45;7.50;1.00
827;DHT22;395;48.132;11.608;2023-04-03T18:21:12;7.50;1.00
827;DHT22;395;48.132;11.608;2023-04-03T18:23:42;7.40;1.00
827;DHT22;395;48.132;11.608;2023-04-03T18:26:09;7.50;1.00
827;DHT22;395;48.132;11.608;2023-04-03T18:28:37;7.50;1.00
827;DHT22;395;48.132;11.608;2023-04-03T18:31:04;7.50;1.00
827;DHT22;395;48.132;11.608;2023-04-03T18:33:29;7.40;1.00
827;DHT22;395;48.132;11.608;2023-04-03T18:35:55;7.40;1.00
827;DHT22;395;48.132;11.608;2023-04-03T18:38:21;7.40;1.00
827;DHT22;395;48.132;11.608;2023-04-03T18:40:47;7.40;1.00
827;DHT22;395;48.132;11.608;2023-04-03T18:43:14;7.40;1.00
827;DHT22;395;48.132;11.608;2023-04-03T18:45:40;7.30;1.00
827;DHT22;395;48.132;11.608;2023-04-03T18:48:05;7.30;1.00